sensor_id;sensor_type;location;lat;lon;timestamp;temperature;humidity
10583;DHT22;33679;51.218;6.786;2023-02-28T00:00:19;5.80;99.90
10583;DHT22;33679;51.218;6.786;2023-02-28T00:02:52;5.80;99.90
10583;DHT22;33679;51.218;6.786;2023-02-28T00:05:27;5.70;99.90
10583;DHT22;33679;51.218;6.786;2023-02-28T00:08:00;5.70;99.90
10583;DHT22;33679;51.218;6.786;2023-02-28T00:10:32;5.70;99.90
10583;DHT22;33679;51.218;6.786;2023-02-28T00:13:07;5.70;99.90
10583;DHT22;33679;51.218;6.786;2023-02-28T00:15:41;5.70;99.90
10583;DHT22;33679;51.218;6.786;2023-02-28T00:18:15;5.70;99.90
10583;DHT22;33679;51.218;6.786;2023-02-28T00:20:48;5.70;99.90
10583;DHT22;33679;51.218;6.786;2023-02-28T00:23:20;5.60;99.90
10583;DHT22;33679;51.218;6.786;2023-02-28T00:25:52;5.50;99.90
10583;DHT22;33679;51.218;6.786;2023-02-28T00:28:25;5.50;99.90
10583;DHT22;33679;51.218;6.786;2023-02-28T00:31:00;5.50;99.90
10583;DHT22;33679;51.218;6.786;2023-02-28T00:33:33;5.50;99.90
10583;DHT22;33679;51.218;6.786;2023-02-28T00:36:07;5.50;99.90
10583;DHT22;33679;51.218;6.786;2023-02-28T00:38:43;5.50;99.90
10583;DHT22;33679;51.218;6.786;2023-02-28T00:41:16;5.60;99.90
10583;DHT22;33679;51.218;6.786;2023-02-28T00:43:48;5.60;99.90
10583;DHT22;33679;51.218;6.786;2023-02-28T00:46:22;5.60;99.90
10583;DHT22;33679;51.218;6.786;2023-02-28T00:49:03;5.60;99.90
10583;DHT22;33679;51.218;6.786;2023-02-28T00:51:36;5.60;99.90
10583;DHT22;33679;51.218;6.786;2023-02-28T00:54:08;5.50;99.90
10583;DHT22;33679;51.218;6.786;2023-02-28T00:56:40;5.50;99.90
10583;DHT22;33679;51.218;6.786;2023-02-28T00:59:13;5.50;99.90
10583;DHT22;33679;51.218;6.786;2023-02-28T01:01:47;5.50;99.90
10583;DHT22;33679;51.218;6.786;2023-02-28T01:04:19;5.50;99.90
10583;DHT22;33679;51.218;6.786;2023-02-28T01:06:52;5.50;99.90
10583;DHT22;33679;51.218;6.786;2023-02-28T01:09:25;5.50;99.90
10583;DHT22;33679;51.218;6.786;2023-02-28T01:11:57;5.50;99.90
10583;DHT22;33679;51.218;6.786;2023-02-28T01:14:30;5.50;99.90
10583;DHT22;33679;51.218;6.786;2023-02-28T01:17:04;5.50;99.90
10583;DHT22;33679;51.218;6.786;2023-02-28T01:19:38;5.50;99.90
10583;DHT22;33679;51.218;6.786;2023-02-28T01:22:10;5.40;99.90
10583;DHT22;33679;51.218;6.786;2023-02-28T01:24:43;5.40;99.90
10583;DHT22;33679;51.218;6.786;2023-02-28T01:27:17;5.40;99.90
10583;DHT22;33679;51.218;6.786;2023-02-28T01:29:50;5.40;99.90
10583;DHT22;33679;51.218;6.786;2023-02-28T01:32:25;5.40;99.90
10583;DHT22;33679;51.218;6.786;2023-02-28T01:34:57;5.40;99.90
10583;DHT22;33679;51.218;6.786;2023-02-28T01:37:30;5.40;99.90
10583;DHT22;33679;51.218;6.786;2023-02-28T01:40:03;5.40;99.90
10583;DHT22;33679;51.218;6.786;2023-02-28T01:42:35;5.40;99.90
10583;DHT22;33679;51.218;6.786;2023-02-28T01:45:22;5.40;99.90
10583;DHT22;33679;51.218;6.786;2023-02-28T01:48:03;5.40;99.90
10583;DHT22;33679;51.218;6.786;2023-02-28T01:50:39;5.30;99.90
10583;DHT22;33679;51.218;6.786;2023-02-28T01:53:14;5.30;99.90
10583;DHT22;33679;51.218;6.786;2023-02-28T01:55:51;5.30;99.90
10583;DHT22;33679;51.218;6.786;2023-02-28T01:58:25;5.30;99.90
10583;DHT22;33679;51.218;6.786;2023-02-28T02:00:58;5.20;99.90
10583;DHT22;33679;51.218;6.786;2023-02-28T02:03:32;5.20;99.90
10583;DHT22;33679;51.218;6.786;2023-02-28T02:06:10;5.10;99.90
10583;DHT22;33679;51.218;6.786;2023-02-28T02:08:45;5.20;99.90
10583;DHT22;33679;51.218;6.786;2023-02-28T02:11:19;5.20;99.90
10583;DHT22;33679;51.218;6.786;2023-02-28T02:14:10;5.20;99.90
10583;DHT22;33679;51.218;6.786;2023-02-28T02:16:58;5.10;99.90
10583;DHT22;33679;51.218;6.786;2023-02-28T02:20:10;5.10;99.90
10583;DHT22;33679;51.218;6.786;2023-02-28T02:23:13;5.10;99.90
10583;DHT22;33679;51.218;6.786;2023-02-28T02:25:53;5.00;99.90
10583;DHT22;33679;51.218;6.786;2023-02-28T02:28:46;5.00;99.90
10583;DHT22;33679;51.218;6.786;2023-02-28T02:31:47;5.00;99.90
10583;DHT22;33679;51.218;6.786;2023-02-28T02:34:50;5.00;99.90
10583;DHT22;33679;51.218;6.786;2023-02-28T02:37:29;5.00;99.90
10583;DHT22;33679;51.218;6.786;2023-02-28T02:40:11;5.00;99.90
10583;DHT22;33679;51.218;6.786;2023-02-28T02:42:50;4.90;99.90
10583;DHT22;33679;51.218;6.786;2023-02-28T02:45:28;5.00;99.90
10583;DHT22;33679;51.218;6.786;2023-02-28T02:48:12;4.90;99.90
10583;DHT22;33679;51.218;6.786;2023-02-28T02:50:51;4.90;99.90
10583;DHT22;33679;51.218;6.786;2023-02-28T02:53:30;4.90;99.90
10583;DHT22;33679;51.218;6.786;2023-02-28T02:56:07;4.90;99.90
10583;DHT22;33679;51.218;6.786;2023-02-28T02:58:41;4.80;99.90
10583;DHT22;33679;51.218;6.786;2023-02-28T03:01:19;4.70;99.90
10583;DHT22;33679;51.218;6.786;2023-02-28T03:04:01;4.80;99.90
10583;DHT22;33679;51.218;6.786;2023-02-28T03:06:36;4.70;99.90
10583;DHT22;33679;51.218;6.786;2023-02-28T03:09:09;4.70;99.90
10583;DHT22;33679;51.218;6.786;2023-02-28T03:11:43;4.70;99.90
10583;DHT22;33679;51.218;6.786;2023-02-28T03:14:32;4.60;99.90
10583;DHT22;33679;51.218;6.786;2023-02-28T03:17:37;4.60;99.90
10583;DHT22;33679;51.218;6.786;2023-02-28T03:20:19;4.60;99.90
10583;DHT22;33679;51.218;6.786;2023-02-28T03:23:07;4.50;99.90
10583;DHT22;33679;51.218;6.786;2023-02-28T03:25:54;4.40;99.90
10583;DHT22;33679;51.218;6.786;2023-02-28T03:28:31;4.40;99.90
10583;DHT22;33679;51.218;6.786;2023-02-28T03:31:15;4.30;99.90
10583;DHT22;33679;51.218;6.786;2023-02-28T03:33:55;4.30;99.90
10583;DHT22;33679;51.218;6.786;2023-02-28T03:36:34;4.30;99.90
10583;DHT22;33679;51.218;6.786;2023-02-28T03:39:18;4.20;99.90
10583;DHT22;33679;51.218;6.786;2023-02-28T03:41:55;4.20;99.90
10583;DHT22;33679;51.218;6.786;2023-02-28T03:44:32;4.20;99.90
10583;DHT22;33679;51.218;6.786;2023-02-28T03:47:10;4.20;99.90
10583;DHT22;33679;51.218;6.786;2023-02-28T03:49:47;4.20;99.90
10583;DHT22;33679;51.218;6.786;2023-02-28T03:52:23;4.10;99.90
10583;DHT22;33679;51.218;6.786;2023-02-28T03:55:02;4.20;99.90
10583;DHT22;33679;51.218;6.786;2023-02-28T03:57:41;4.20;99.90
10583;DHT22;33679;51.218;6.786;2023-02-28T04:00:20;4.20;99.90
10583;DHT22;33679;51.218;6.786;2023-02-28T04:02:53;4.20;99.90
10583;DHT22;33679;51.218;6.786;2023-02-28T04:05:27;4.20;99.90
10583;DHT22;33679;51.218;6.786;2023-02-28T04:08:04;4.20;99.90
10583;DHT22;33679;51.218;6.786;2023-02-28T04:10:39;4.20;99.90
10583;DHT22;33679;51.218;6.786;2023-02-28T04:13:11;4.20;99.90
10583;DHT22;33679;51.218;6.786;2023-02-28T04:15:43;4.20;99.90
10583;DHT22;33679;51.218;6.786;2023-02-28T04:18:16;4.20;99.90
10583;DHT22;33679;51.218;6.786;2023-02-28T04:20:48;4.20;99.90
10583;DHT22;33679;51.218;6.786;2023-02-28T04:23:20;4.20;99.90
10583;DHT22;33679;51.218;6.786;2023-02-28T04:25:59;4.20;99.90
10583;DHT22;33679;51.218;6.786;2023-02-28T04:28:31;4.20;99.90
10583;DHT22;33679;51.218;6.786;2023-02-28T04:31:05;4.20;99.90
10583;DHT22;33679;51.218;6.786;2023-02-28T04:33:37;4.20;99.90
10583;DHT22;33679;51.218;6.786;2023-02-28T04:36:10;4.20;99.90
10583;DHT22;33679;51.218;6.786;2023-02-28T04:38:44;4.20;99.90
10583;DHT22;33679;51.218;6.786;2023-02-28T04:41:19;4.20;99.90
10583;DHT22;33679;51.218;6.786;2023-02-28T04:43:52;4.20;99.90
10583;DHT22;33679;51.218;6.786;2023-02-28T04:46:24;4.20;99.90
10583;DHT22;33679;51.218;6.786;2023-02-28T04:48:57;4.20;99.90
10583;DHT22;33679;51.218;6.786;2023-02-28T04:51:30;4.20;99.90
10583;DHT22;33679;51.218;6.786;2023-02-28T04:54:02;4.20;99.90
10583;DHT22;33679;51.218;6.786;2023-02-28T04:56:39;4.20;99.90
10583;DHT22;33679;51.218;6.786;2023-02-28T04:59:11;4.20;99.90
10583;DHT22;33679;51.218;6.786;2023-02-28T05:01:46;4.10;99.90
10583;DHT22;33679;51.218;6.786;2023-02-28T05:04:18;4.10;99.90
10583;DHT22;33679;51.218;6.786;2023-02-28T05:06:51;4.10;99.90
10583;DHT22;33679;51.218;6.786;2023-02-28T05:09:23;4.00;99.90
10583;DHT22;33679;51.218;6.786;2023-02-28T05:11:57;4.00;99.90
10583;DHT22;33679;51.218;6.786;2023-02-28T05:14:29;4.00;99.90
10583;DHT22;33679;51.218;6.786;2023-02-28T05:17:01;3.90;99.90
10583;DHT22;33679;51.218;6.786;2023-02-28T05:19:34;3.90;99.90
10583;DHT22;33679;51.218;6.786;2023-02-28T05:22:13;3.90;99.90
10583;DHT22;33679;51.218;6.786;2023-02-28T05:24:46;3.90;99.90
10583;DHT22;33679;51.218;6.786;2023-02-28T05:27:21;3.80;99.90
10583;DHT22;33679;51.218;6.786;2023-02-28T05:29:53;3.80;99.90
10583;DHT22;33679;51.218;6.786;2023-02-28T05:32:26;3.80;99.90
10583;DHT22;33679;51.218;6.786;2023-02-28T05:34:58;3.80;99.90
10583;DHT22;33679;51.218;6.786;2023-02-28T05:37:30;3.90;99.90
10583;DHT22;33679;51.218;6.786;2023-02-28T05:40:03;3.90;99.90
10583;DHT22;33679;51.218;6.786;2023-02-28T05:42:39;3.90;99.90
10583;DHT22;33679;51.218;6.786;2023-02-28T05:45:13;3.90;99.90
10583;DHT22;33679;51.218;6.786;2023-02-28T05:47:45;3.90;99.90
10583;DHT22;33679;51.218;6.786;2023-02-28T05:50:18;4.00;99.90
10583;DHT22;33679;51.218;6.786;2023-02-28T05:52:50;4.00;99.90
10583;DHT22;33679;51.218;6.786;2023-02-28T05:55:23;4.00;99.90
10583;DHT22;33679;51.218;6.786;2023-02-28T05:57:56;3.90;99.90
10583;DHT22;33679;51.218;6.786;2023-02-28T06:00:32;4.00;99.90
10583;DHT22;33679;51.218;6.786;2023-02-28T06:03:07;4.00;99.90
10583;DHT22;33679;51.218;6.786;2023-02-28T06:05:40;4.00;99.90
10583;DHT22;33679;51.218;6.786;2023-02-28T06:08:12;4.00;99.90
10583;DHT22;33679;51.218;6.786;2023-02-28T06:10:44;4.00;99.90
10583;DHT22;33679;51.218;6.786;2023-02-28T06:13:18;3.80;99.90
10583;DHT22;33679;51.218;6.786;2023-02-28T06:15:51;3.90;99.90
10583;DHT22;33679;51.218;6.786;2023-02-28T06:18:24;3.80;99.90
10583;DHT22;33679;51.218;6.786;2023-02-28T06:20:56;3.80;99.90
10583;DHT22;33679;51.218;6.786;2023-02-28T06:23:29;3.70;99.90
10583;DHT22;33679;51.218;6.786;2023-02-28T06:26:01;3.70;99.90
10583;DHT22;33679;51.218;6.786;2023-02-28T06:28:35;3.70;99.90
10583;DHT22;33679;51.218;6.786;2023-02-28T06:31:08;3.70;99.90
10583;DHT22;33679;51.218;6.786;2023-02-28T06:33:41;3.70;99.90
10583;DHT22;33679;51.218;6.786;2023-02-28T06:36:15;3.70;99.90
10583;DHT22;33679;51.218;6.786;2023-02-28T06:38:48;3.70;99.90
10583;DHT22;33679;51.218;6.786;2023-02-28T06:41:26;3.60;99.90
10583;DHT22;33679;51.218;6.786;2023-02-28T06:44:00;3.70;99.90
10583;DHT22;33679;51.218;6.786;2023-02-28T06:46:33;3.60;99.90
10583;DHT22;33679;51.218;6.786;2023-02-28T06:49:05;3.70;99.90
10583;DHT22;33679;51.218;6.786;2023-02-28T06:51:40;3.70;99.90
10583;DHT22;33679;51.218;6.786;2023-02-28T06:54:15;3.70;99.90
10583;DHT22;33679;51.218;6.786;2023-02-28T06:56:49;3.70;99.90
10583;DHT22;33679;51.218;6.786;2023-02-28T06:59:22;3.80;99.90
10583;DHT22;33679;51.218;6.786;2023-02-28T07:01:55;3.80;99.90
10583;DHT22;33679;51.218;6.786;2023-02-28T07:04:28;3.90;99.90
10583;DHT22;33679;51.218;6.786;2023-02-28T07:07:00;3.80;99.90
10583;DHT22;33679;51.218;6.786;2023-02-28T07:09:33;3.80;99.90
10583;DHT22;33679;51.218;6.786;2023-02-28T07:12:08;3.80;99.90
10583;DHT22;33679;51.218;6.786;2023-02-28T07:14:42;3.80;99.90
10583;DHT22;33679;51.218;6.786;2023-02-28T07:17:14;3.80;99.90
10583;DHT22;33679;51.218;6.786;2023-02-28T07:19:46;3.80;99.90
10583;DHT22;33679;51.218;6.786;2023-02-28T07:22:19;3.90;99.90
10583;DHT22;33679;51.218;6.786;2023-02-28T07:24:51;3.80;99.90
10583;DHT22;33679;51.218;6.786;2023-02-28T07:27:24;3.90;99.90
10583;DHT22;33679;51.218;6.786;2023-02-28T07:29:58;3.90;99.90
10583;DHT22;33679;51.218;6.786;2023-02-28T07:32:32;3.90;99.90
10583;DHT22;33679;51.218;6.786;2023-02-28T07:35:09;3.90;99.90
10583;DHT22;33679;51.218;6.786;2023-02-28T07:37:41;3.90;99.90
10583;DHT22;33679;51.218;6.786;2023-02-28T07:40:13;4.00;99.90
10583;DHT22;33679;51.218;6.786;2023-02-28T07:42:46;4.00;99.90
10583;DHT22;33679;51.218;6.786;2023-02-28T07:45:23;4.10;99.90
10583;DHT22;33679;51.218;6.786;2023-02-28T07:47:58;4.10;99.90
10583;DHT22;33679;51.218;6.786;2023-02-28T07:50:30;4.10;99.90
10583;DHT22;33679;51.218;6.786;2023-02-28T07:53:05;4.10;99.90
10583;DHT22;33679;51.218;6.786;2023-02-28T07:55:37;4.10;99.90
10583;DHT22;33679;51.218;6.786;2023-02-28T07:58:10;4.10;99.90
10583;DHT22;33679;51.218;6.786;2023-02-28T08:00:44;4.20;99.90
10583;DHT22;33679;51.218;6.786;2023-02-28T08:03:16;4.20;99.90
10583;DHT22;33679;51.218;6.786;2023-02-28T08:05:49;4.30;99.90
10583;DHT22;33679;51.218;6.786;2023-02-28T08:08:23;4.30;99.90
10583;DHT22;33679;51.218;6.786;2023-02-28T08:11:03;4.40;99.90
10583;DHT22;33679;51.218;6.786;2023-02-28T08:13:35;4.50;99.90
10583;DHT22;33679;51.218;6.786;2023-02-28T08:16:09;4.50;99.90
10583;DHT22;33679;51.218;6.786;2023-02-28T08:18:43;4.60;99.90
10583;DHT22;33679;51.218;6.786;2023-02-28T08:21:16;4.60;99.90
10583;DHT22;33679;51.218;6.786;2023-02-28T08:23:48;4.60;99.90
10583;DHT22;33679;51.218;6.786;2023-02-28T08:26:22;4.70;99.90
10583;DHT22;33679;51.218;6.786;2023-02-28T08:28:55;4.80;99.90
10583;DHT22;33679;51.218;6.786;2023-02-28T08:31:29;4.90;99.90
10583;DHT22;33679;51.218;6.786;2023-02-28T08:34:05;4.90;99.90
10583;DHT22;33679;51.218;6.786;2023-02-28T08:36:39;5.00;99.90
10583;DHT22;33679;51.218;6.786;2023-02-28T08:39:12;5.00;99.90
10583;DHT22;33679;51.218;6.786;2023-02-28T08:41:45;5.10;99.90
10583;DHT22;33679;51.218;6.786;2023-02-28T08:44:18;5.10;99.90
10583;DHT22;33679;51.218;6.786;2023-02-28T08:46:51;5.10;99.90
10583;DHT22;33679;51.218;6.786;2023-02-28T08:49:24;5.00;99.90
10583;DHT22;33679;51.218;6.786;2023-02-28T08:51:56;5.20;99.90
10583;DHT22;33679;51.218;6.786;2023-02-28T08:54:28;5.20;99.90
10583;DHT22;33679;51.218;6.786;2023-02-28T08:57:02;5.20;99.90
10583;DHT22;33679;51.218;6.786;2023-02-28T08:59:35;5.30;99.90
10583;DHT22;33679;51.218;6.786;2023-02-28T09:02:12;5.40;99.90
10583;DHT22;33679;51.218;6.786;2023-02-28T09:04:45;5.50;99.90
10583;DHT22;33679;51.218;6.786;2023-02-28T09:07:17;5.50;99.90
10583;DHT22;33679;51.218;6.786;2023-02-28T09:09:49;5.50;99.90
10583;DHT22;33679;51.218;6.786;2023-02-28T09:12:32;5.60;99.90
10583;DHT22;33679;51.218;6.786;2023-02-28T09:15:06;5.60;99.90
10583;DHT22;33679;51.218;6.786;2023-02-28T09:17:40;5.60;99.90
10583;DHT22;33679;51.218;6.786;2023-02-28T09:20:13;5.70;99.90
10583;DHT22;33679;51.218;6.786;2023-02-28T09:22:45;5.80;99.90
10583;DHT22;33679;51.218;6.786;2023-02-28T09:25:18;5.80;99.90
10583;DHT22;33679;51.218;6.786;2023-02-28T09:27:51;5.80;99.90
10583;DHT22;33679;51.218;6.786;2023-02-28T09:30:23;5.90;99.90
10583;DHT22;33679;51.218;6.786;2023-02-28T09:32:57;5.90;99.90
10583;DHT22;33679;51.218;6.786;2023-02-28T09:35:30;5.90;99.90
10583;DHT22;33679;51.218;6.786;2023-02-28T09:38:04;5.90;99.90
10583;DHT22;33679;51.218;6.786;2023-02-28T09:40:50;6.00;99.90
10583;DHT22;33679;51.218;6.786;2023-02-28T09:43:26;5.90;99.90
10583;DHT22;33679;51.218;6.786;2023-02-28T09:46:02;6.00;99.90
10583;DHT22;33679;51.218;6.786;2023-02-28T09:48:41;6.10;99.90
10583;DHT22;33679;51.218;6.786;2023-02-28T09:51:37;6.00;99.90
10583;DHT22;33679;51.218;6.786;2023-02-28T09:54:15;6.00;99.90
10583;DHT22;33679;51.218;6.786;2023-02-28T09:56:54;6.10;99.90
10583;DHT22;33679;51.218;6.786;2023-02-28T09:59:36;6.20;99.90
10583;DHT22;33679;51.218;6.786;2023-02-28T10:05:34;6.40;99.90
10583;DHT22;33679;51.218;6.786;2023-02-28T10:08:13;6.40;99.90
10583;DHT22;33679;51.218;6.786;2023-02-28T10:10:55;6.50;99.90
10583;DHT22;33679;51.218;6.786;2023-02-28T10:13:34;6.60;99.90
10583;DHT22;33679;51.218;6.786;2023-02-28T10:16:10;6.60;99.70
10583;DHT22;33679;51.218;6.786;2023-02-28T10:18:48;6.60;99.60
10583;DHT22;33679;51.218;6.786;2023-02-28T10:21:29;6.70;99.90
10583;DHT22;33679;51.218;6.786;2023-02-28T10:24:14;6.80;99.90
10583;DHT22;33679;51.218;6.786;2023-02-28T10:26:52;6.80;99.80
10583;DHT22;33679;51.218;6.786;2023-02-28T10:29:31;6.90;99.80
10583;DHT22;33679;51.218;6.786;2023-02-28T10:32:05;7.00;99.50
10583;DHT22;33679;51.218;6.786;2023-02-28T10:34:37;7.00;99.60
10583;DHT22;33679;51.218;6.786;2023-02-28T10:37:11;7.00;99.20
10583;DHT22;33679;51.218;6.786;2023-02-28T10:39:46;7.10;99.60
10583;DHT22;33679;51.218;6.786;2023-02-28T10:42:22;7.30;99.70
10583;DHT22;33679;51.218;6.786;2023-02-28T10:45:12;7.40;99.30
10583;DHT22;33679;51.218;6.786;2023-02-28T10:47:55;7.50;99.30
10583;DHT22;33679;51.218;6.786;2023-02-28T10:50:33;7.50;99.40
10583;DHT22;33679;51.218;6.786;2023-02-28T10:53:22;7.50;99.20
10583;DHT22;33679;51.218;6.786;2023-02-28T10:55:59;7.50;99.50
10583;DHT22;33679;51.218;6.786;2023-02-28T10:58:47;7.60;99.20
10583;DHT22;33679;51.218;6.786;2023-02-28T11:01:39;7.70;99.00
10583;DHT22;33679;51.218;6.786;2023-02-28T11:04:18;7.80;98.80
10583;DHT22;33679;51.218;6.786;2023-02-28T11:07:00;7.80;98.80
10583;DHT22;33679;51.218;6.786;2023-02-28T11:09:37;7.80;99.10
10583;DHT22;33679;51.218;6.786;2023-02-28T11:12:21;7.90;98.00
10583;DHT22;33679;51.218;6.786;2023-02-28T11:14:57;7.80;98.10
10583;DHT22;33679;51.218;6.786;2023-02-28T11:17:31;7.70;97.80
10583;DHT22;33679;51.218;6.786;2023-02-28T11:20:07;7.60;98.00
10583;DHT22;33679;51.218;6.786;2023-02-28T11:22:46;7.50;98.00
10583;DHT22;33679;51.218;6.786;2023-02-28T11:25:24;7.40;98.40
10583;DHT22;33679;51.218;6.786;2023-02-28T11:27:58;7.40;98.40
10583;DHT22;33679;51.218;6.786;2023-02-28T11:30:35;7.30;98.50
10583;DHT22;33679;51.218;6.786;2023-02-28T11:33:26;7.30;98.60
10583;DHT22;33679;51.218;6.786;2023-02-28T11:36:03;7.30;98.30
10583;DHT22;33679;51.218;6.786;2023-02-28T11:38:37;7.30;98.40
10583;DHT22;33679;51.218;6.786;2023-02-28T11:44:24;7.30;98.40
10583;DHT22;33679;51.218;6.786;2023-02-28T11:47:06;7.20;98.80
10583;DHT22;33679;51.218;6.786;2023-02-28T11:49:48;7.30;98.70
10583;DHT22;33679;51.218;6.786;2023-02-28T11:52:32;7.40;98.80
10583;DHT22;33679;51.218;6.786;2023-02-28T11:55:15;7.40;98.10
10583;DHT22;33679;51.218;6.786;2023-02-28T11:58:03;7.40;98.60
10583;DHT22;33679;51.218;6.786;2023-02-28T12:00:50;7.60;98.20
10583;DHT22;33679;51.218;6.786;2023-02-28T12:03:29;7.70;98.30
10583;DHT22;33679;51.218;6.786;2023-02-28T12:06:14;7.80;98.10
10583;DHT22;33679;51.218;6.786;2023-02-28T12:08:58;7.80;98.00
10583;DHT22;33679;51.218;6.786;2023-02-28T12:11:51;7.80;97.80
10583;DHT22;33679;51.218;6.786;2023-02-28T12:14:50;7.80;98.00
10583;DHT22;33679;51.218;6.786;2023-02-28T12:17:37;7.90;98.00
10583;DHT22;33679;51.218;6.786;2023-02-28T12:20:21;8.00;98.20
10583;DHT22;33679;51.218;6.786;2023-02-28T12:23:07;8.00;98.20
10583;DHT22;33679;51.218;6.786;2023-02-28T12:25:54;8.00;98.30
10583;DHT22;33679;51.218;6.786;2023-02-28T12:28:31;7.90;98.20
10583;DHT22;33679;51.218;6.786;2023-02-28T12:31:11;7.70;98.20
10583;DHT22;33679;51.218;6.786;2023-02-28T12:33:50;7.50;98.50
10583;DHT22;33679;51.218;6.786;2023-02-28T12:36:27;7.40;98.70
10583;DHT22;33679;51.218;6.786;2023-02-28T12:39:02;7.30;99.00
10583;DHT22;33679;51.218;6.786;2023-02-28T12:41:42;7.20;99.20
10583;DHT22;33679;51.218;6.786;2023-02-28T12:44:20;7.10;99.10
10583;DHT22;33679;51.218;6.786;2023-02-28T12:46:59;7.10;99.30
10583;DHT22;33679;51.218;6.786;2023-02-28T12:49:41;7.10;99.50
10583;DHT22;33679;51.218;6.786;2023-02-28T12:52:19;7.10;99.20
10583;DHT22;33679;51.218;6.786;2023-02-28T12:54:59;7.10;99.30
10583;DHT22;33679;51.218;6.786;2023-02-28T12:57:41;7.10;99.40
10583;DHT22;33679;51.218;6.786;2023-02-28T13:00:17;7.20;99.40
10583;DHT22;33679;51.218;6.786;2023-02-28T13:06:28;7.20;99.60
10583;DHT22;33679;51.218;6.786;2023-02-28T13:09:08;7.20;99.50
10583;DHT22;33679;51.218;6.786;2023-02-28T13:11:44;7.20;99.70
10583;DHT22;33679;51.218;6.786;2023-02-28T13:14:22;7.30;99.20
10583;DHT22;33679;51.218;6.786;2023-02-28T13:17:03;7.30;99.20
10583;DHT22;33679;51.218;6.786;2023-02-28T13:19:44;7.40;99.10
10583;DHT22;33679;51.218;6.786;2023-02-28T13:22:37;7.50;98.80
10583;DHT22;33679;51.218;6.786;2023-02-28T13:35:14;7.50;99.20
10583;DHT22;33679;51.218;6.786;2023-02-28T13:38:33;7.50;99.40
10583;DHT22;33679;51.218;6.786;2023-02-28T13:41:41;7.60;98.90
10583;DHT22;33679;51.218;6.786;2023-02-28T13:44:18;7.70;98.90
10583;DHT22;33679;51.218;6.786;2023-02-28T13:47:27;7.70;98.70
10583;DHT22;33679;51.218;6.786;2023-02-28T13:50:22;7.70;98.80
10583;DHT22;33679;51.218;6.786;2023-02-28T13:53:20;7.70;98.80
10583;DHT22;33679;51.218;6.786;2023-02-28T13:56:03;7.60;99.00
10583;DHT22;33679;51.218;6.786;2023-02-28T13:58:43;7.70;99.20
10583;DHT22;33679;51.218;6.786;2023-02-28T14:01:36;7.70;99.30
10583;DHT22;33679;51.218;6.786;2023-02-28T14:07:21;7.80;99.20
10583;DHT22;33679;51.218;6.786;2023-02-28T14:10:05;7.80;99.30
10583;DHT22;33679;51.218;6.786;2023-02-28T14:12:59;7.90;99.20
10583;DHT22;33679;51.218;6.786;2023-02-28T14:15:43;7.90;99.20
10583;DHT22;33679;51.218;6.786;2023-02-28T14:18:21;7.90;99.50
10583;DHT22;33679;51.218;6.786;2023-02-28T14:21:19;7.90;99.60
10583;DHT22;33679;51.218;6.786;2023-02-28T14:24:27;7.90;99.80
10583;DHT22;33679;51.218;6.786;2023-02-28T14:27:14;8.00;99.30
10583;DHT22;33679;51.218;6.786;2023-02-28T14:30:15;8.00;99.20
10583;DHT22;33679;51.218;6.786;2023-02-28T14:33:05;8.00;99.30
10583;DHT22;33679;51.218;6.786;2023-02-28T14:36:00;8.00;99.30
10583;DHT22;33679;51.218;6.786;2023-02-28T14:38:42;8.00;99.30
10583;DHT22;33679;51.218;6.786;2023-02-28T14:41:21;8.00;99.50
10583;DHT22;33679;51.218;6.786;2023-02-28T14:43:58;8.10;99.50
10583;DHT22;33679;51.218;6.786;2023-02-28T14:46:38;8.00;99.60
10583;DHT22;33679;51.218;6.786;2023-02-28T14:49:17;8.00;99.60
10583;DHT22;33679;51.218;6.786;2023-02-28T14:52:02;8.00;99.60
10583;DHT22;33679;51.218;6.786;2023-02-28T14:54:37;8.10;99.50
10583;DHT22;33679;51.218;6.786;2023-02-28T14:57:29;8.10;99.60
10583;DHT22;33679;51.218;6.786;2023-02-28T15:00:11;8.20;99.40
10583;DHT22;33679;51.218;6.786;2023-02-28T15:02:46;8.20;99.40
10583;DHT22;33679;51.218;6.786;2023-02-28T15:05:25;8.10;99.50
10583;DHT22;33679;51.218;6.786;2023-02-28T15:08:09;8.20;99.60
10583;DHT22;33679;51.218;6.786;2023-02-28T15:10:44;8.10;99.60
10583;DHT22;33679;51.218;6.786;2023-02-28T15:13:19;8.10;99.90
10583;DHT22;33679;51.218;6.786;2023-02-28T15:15:56;8.10;99.80
10583;DHT22;33679;51.218;6.786;2023-02-28T15:18:35;8.10;99.70
10583;DHT22;33679;51.218;6.786;2023-02-28T15:21:15;8.00;99.80
10583;DHT22;33679;51.218;6.786;2023-02-28T15:23:52;8.00;99.90
10583;DHT22;33679;51.218;6.786;2023-02-28T15:26:29;8.00;99.90
10583;DHT22;33679;51.218;6.786;2023-02-28T15:29:06;8.00;99.90
10583;DHT22;33679;51.218;6.786;2023-02-28T15:31:44;8.00;99.90
10583;DHT22;33679;51.218;6.786;2023-02-28T15:34:20;8.00;99.90
10583;DHT22;33679;51.218;6.786;2023-02-28T15:36:53;8.00;99.90
10583;DHT22;33679;51.218;6.786;2023-02-28T15:39:28;8.00;99.90
10583;DHT22;33679;51.218;6.786;2023-02-28T15:42:11;7.90;99.90
10583;DHT22;33679;51.218;6.786;2023-02-28T15:44:44;8.00;99.90
10583;DHT22;33679;51.218;6.786;2023-02-28T15:47:22;8.00;99.90
10583;DHT22;33679;51.218;6.786;2023-02-28T15:49:57;8.00;99.90
10583;DHT22;33679;51.218;6.786;2023-02-28T15:52:38;8.00;99.90
10583;DHT22;33679;51.218;6.786;2023-02-28T15:55:17;7.90;99.90
10583;DHT22;33679;51.218;6.786;2023-02-28T15:57:52;7.90;99.90
10583;DHT22;33679;51.218;6.786;2023-02-28T16:00:27;7.90;99.90
10583;DHT22;33679;51.218;6.786;2023-02-28T16:03:01;7.80;99.90
10583;DHT22;33679;51.218;6.786;2023-02-28T16:05:34;7.80;99.90
10583;DHT22;33679;51.218;6.786;2023-02-28T16:08:14;7.80;99.90
10583;DHT22;33679;51.218;6.786;2023-02-28T16:10:48;7.80;99.90
10583;DHT22;33679;51.218;6.786;2023-02-28T16:13:21;7.70;99.90
10583;DHT22;33679;51.218;6.786;2023-02-28T16:15:57;7.70;99.90
10583;DHT22;33679;51.218;6.786;2023-02-28T16:18:34;7.70;99.90
10583;DHT22;33679;51.218;6.786;2023-02-28T16:21:08;7.60;99.90
10583;DHT22;33679;51.218;6.786;2023-02-28T16:23:40;7.60;99.90
10583;DHT22;33679;51.218;6.786;2023-02-28T16:26:21;7.60;99.90
10583;DHT22;33679;51.218;6.786;2023-02-28T16:28:55;7.60;99.90
10583;DHT22;33679;51.218;6.786;2023-02-28T16:31:29;7.60;99.90
10583;DHT22;33679;51.218;6.786;2023-02-28T16:34:06;7.60;99.90
10583;DHT22;33679;51.218;6.786;2023-02-28T16:36:39;7.60;99.90
10583;DHT22;33679;51.218;6.786;2023-02-28T16:39:12;7.60;99.90
10583;DHT22;33679;51.218;6.786;2023-02-28T16:41:50;7.50;99.90
10583;DHT22;33679;51.218;6.786;2023-02-28T16:44:27;7.50;99.90
10583;DHT22;33679;51.218;6.786;2023-02-28T16:47:08;7.60;99.90
10583;DHT22;33679;51.218;6.786;2023-02-28T16:49:44;7.60;99.90
10583;DHT22;33679;51.218;6.786;2023-02-28T16:52:20;7.50;99.90
10583;DHT22;33679;51.218;6.786;2023-02-28T16:54:53;7.50;99.90
10583;DHT22;33679;51.218;6.786;2023-02-28T16:57:25;7.50;99.90
10583;DHT22;33679;51.218;6.786;2023-02-28T16:59:58;7.50;99.90
10583;DHT22;33679;51.218;6.786;2023-02-28T17:02:33;7.50;99.90
10583;DHT22;33679;51.218;6.786;2023-02-28T17:05:11;7.50;99.90
10583;DHT22;33679;51.218;6.786;2023-02-28T17:07:45;7.50;99.90
10583;DHT22;33679;51.218;6.786;2023-02-28T17:10:29;7.50;99.90
10583;DHT22;33679;51.218;6.786;2023-02-28T17:13:01;7.50;99.90